Arnold, Nebraska
Current Conditions -  °F | °C
As of 5:53 PM on Sunday 21 Dec 2014 (Local Time) from KBBW Reporting Station
Haze Haze  
Wind Chill: 31°   Ceiling: 700
Heat Index: 37°   Visibility: 5mi
Dew Point: 35°   Wind: 8mph
Humidity: 93%   Direction: 160°SSE
Pressure: 29.51"   Gusts: NA
Location:  41.42°N, 100.19°W
Report Text: KBBW 212353Z AUTO 16007KT 5SM BR OVC007 03/02 A2951 RMK AO2 SLP009 T00280017 10072 20028 58016
Loading
Personal Weather Stations






























Interactive Weather Map New forecast layout! Learn more

10-Day Weather Forecast

Advertisements
Track Severe Weather on mobile